Accueil
METAR-TAF:

METAR-TAF

Aéroports :

Aéroport de Magenta

Nouméa, Nouvelle-Calédonie

latitude: 22-15-30S, longitude: 166-28-22E, altitude: 3 m

METAR: absent

Heure: 15:28 (04:28 UTC)

Prévision

Le bulletin a été fait il y a 11 heures et 28 minutes, à 17:00 UTC
Prévision valable du 10 à 18 UTC au 11 à 18 UTC
Vent 12 kt de ouest
Visibilité 10 km ou plus
Nuages épars à une hauteur de 1000 ft
Nuages fragmentés à une hauteur de 1800 ft
Nuages fragmentés à une hauteur de 3000 ft
Temporairement
du 10 à 18 UTC au 10 à 21 UTC
Visibilité: 4000 m
Nuages fragmentés à une hauteur de 800 ft
pluie

TAF: NWWM 101700Z 1018/1118 28012KT 9999 SCT010 BKN018 BKN030 TEMPO 1018/1021 4000 RA BKN008

Observations et prévisions météorologiques de plus de 4000 aéroports (messages METAR et TAF).

Les stations disponibles sont représentées par des disques jaunes et rouges sur la carte.

Passer la souris dessus pour voir le nom de la station.

Cliquer dessus pour voir les observations et prévisions météorologiques.

Pour changer de carte: cliquez sur les boutons verts avec une croix noire pour zoomer, sur le bouton vert avec un tiret pour effectuer un zoom arrière, ou sur les flèches vertes pour les cartes adjacentes.


METAR-TAF: